ADZ21 UHMA-UHMP
Flight info
| Callsign | ADZ21 |
|---|---|
| Flight time | N/A |
| Altitude | 18000 |
| Route | N0230F180 GERBI W80 ARBOM |
| Aircraft | AN24/M-VGDW/C |
Departure
| Time | 2026-04-26 10:19 |
|---|---|
| Airport | Ugolny Yuri Ryktheu Airport (UHMA) |
Arrival
| Time | N/A |
|---|---|
| Airport | Pevek Airport (UHMP) |
| Time | Latitude | Longitude | Altitude | Speed | Heading |
|---|---|---|---|---|---|
| 2026-04-26 09:59 | 64.71551 | 177.73666 | 151 ft | 0 kts | 270° |
| 2026-04-26 10:10 | 64.71551 | 177.73668 | 151 ft | 0 kts | 90° |
| 2026-04-26 10:11 | 64.71551 | 177.73715 | 151 ft | 2 kts | 86° |
| 2026-04-26 10:11 | 64.71558 | 177.73784 | 151 ft | 12 kts | 52° |
| 2026-04-26 10:11 | 64.71649 | 177.73744 | 151 ft | 11 kts | 316° |
| 2026-04-26 10:11 | 64.71680 | 177.73674 | 151 ft | 4 kts | 317° |
| 2026-04-26 10:12 | 64.71746 | 177.73549 | 151 ft | 11 kts | 328° |
| 2026-04-26 10:12 | 64.71780 | 177.73508 | 151 ft | 3 kts | 335° |
| 2026-04-26 10:12 | 64.71819 | 177.73463 | 151 ft | 2 kts | 335° |
| 2026-04-26 10:12 | 64.71820 | 177.73462 | 151 ft | 0 kts | 335° |
| 2026-04-26 10:14 | 64.71831 | 177.73450 | 151 ft | 6 kts | 336° |
| 2026-04-26 10:14 | 64.71843 | 177.73438 | 151 ft | 2 kts | 336° |
| 2026-04-26 10:14 | 64.71892 | 177.73384 | 151 ft | 4 kts | 335° |
| 2026-04-26 10:15 | 64.71913 | 177.73363 | 151 ft | 8 kts | 343° |
| 2026-04-26 10:15 | 64.71934 | 177.73357 | 151 ft | 0 kts | 3° |
| 2026-04-26 10:15 | 64.71979 | 177.73349 | 151 ft | 5 kts | 332° |
| 2026-04-26 10:15 | 64.71988 | 177.73331 | 151 ft | 2 kts | 313° |
| 2026-04-26 10:16 | 64.72018 | 177.73283 | 151 ft | 1 kts | 346° |
| 2026-04-26 10:16 | 64.72060 | 177.73292 | 151 ft | 4 kts | 24° |
| 2026-04-26 10:16 | 64.72075 | 177.73308 | 151 ft | 5 kts | 18° |
| 2026-04-26 10:16 | 64.72084 | 177.73314 | 151 ft | 0 kts | 16° |
| 2026-04-26 10:18 | 64.72268 | 177.73427 | 151 ft | 63 kts | 15° |
| 2026-04-26 10:18 | 64.72902 | 177.73817 | 152 ft | 119 kts | 15° |
| 2026-04-26 10:18 | 64.73812 | 177.74355 | 224 ft | 145 kts | 14° |
| 2026-04-26 10:18 | 64.74853 | 177.74979 | 391 ft | 163 kts | 15° |
| 2026-04-26 10:19 | 64.75993 | 177.75568 | 566 ft | 180 kts | 11° |
| 2026-04-26 10:19 | 64.77295 | 177.76038 | 736 ft | 195 kts | 8° |
| 2026-04-26 10:19 | 64.78690 | 177.76338 | 801 ft | 204 kts | 6° |
| 2026-04-26 10:19 | 64.80100 | 177.76657 | 955 ft | 206 kts | 6° |
| 2026-04-26 10:20 | 64.81541 | 177.76924 | 1085 ft | 210 kts | 5° |
| 2026-04-26 10:20 | 64.82510 | 177.77063 | 1217 ft | 209 kts | 4° |
| 2026-04-26 10:20 | 64.84421 | 177.77197 | 1562 ft | 206 kts | 1° |
| 2026-04-26 10:20 | 64.85863 | 177.77125 | 1726 ft | 208 kts | 359° |
| 2026-04-26 10:21 | 64.87283 | 177.76945 | 2048 ft | 202 kts | 358° |
| 2026-04-26 10:21 | 64.88651 | 177.76741 | 2392 ft | 196 kts | 356° |
| 2026-04-26 10:21 | 64.89907 | 177.75626 | 2668 ft | 197 kts | 322° |
| 2026-04-26 10:21 | 64.90597 | 177.72841 | 2870 ft | 205 kts | 283° |
| 2026-04-26 10:22 | 64.90596 | 177.69473 | 3125 ft | 206 kts | 270° |
| 2026-04-26 10:22 | 64.90496 | 177.66087 | 3382 ft | 206 kts | 269° |
| 2026-04-26 10:22 | 64.90427 | 177.62727 | 3643 ft | 205 kts | 273° |
| 2026-04-26 10:22 | 64.90492 | 177.59428 | 3905 ft | 203 kts | 277° |
| 2026-04-26 10:23 | 64.90582 | 177.56070 | 4149 ft | 204 kts | 276° |
| 2026-04-26 10:23 | 64.90665 | 177.52766 | 4387 ft | 203 kts | 283° |
| 2026-04-26 10:23 | 64.91270 | 177.49864 | 4589 ft | 197 kts | 320° |
| 2026-04-26 10:23 | 64.92474 | 177.48524 | 4785 ft | 192 kts | 355° |
| 2026-04-26 10:24 | 64.93797 | 177.48262 | 5052 ft | 191 kts | 358° |
| 2026-04-26 10:24 | 64.72414 | 177.88557 | 5307 ft | 191 kts | 359° |
| 2026-04-26 10:24 | 64.94727 | 177.48248 | 5590 ft | 191 kts | 0° |
| 2026-04-26 10:24 | 64.96046 | 177.48041 | 5837 ft | 192 kts | 352° |
| 2026-04-26 10:25 | 64.97336 | 177.47104 | 6097 ft | 193 kts | 338° |
| 2026-04-26 10:25 | 64.98525 | 177.45705 | 6337 ft | 194 kts | 336° |
| 2026-04-26 10:25 | 64.99728 | 177.44257 | 6569 ft | 195 kts | 336° |
| 2026-04-26 10:25 | 65.00944 | 177.42761 | 6807 ft | 196 kts | 335° |
| 2026-04-26 10:26 | 65.02155 | 177.41341 | 7048 ft | 196 kts | 339° |
| 2026-04-26 10:26 | 65.03395 | 177.40044 | 7288 ft | 196 kts | 338° |
| 2026-04-26 10:26 | 65.04638 | 177.38637 | 7520 ft | 197 kts | 337° |
| 2026-04-26 10:26 | 65.05859 | 177.37227 | 7748 ft | 198 kts | 336° |
| 2026-04-26 10:27 | 65.07096 | 177.35751 | 7988 ft | 199 kts | 335° |
| 2026-04-26 10:27 | 65.08325 | 177.34233 | 8214 ft | 200 kts | 334° |
| 2026-04-26 10:27 | 65.09541 | 177.32654 | 8434 ft | 201 kts | 332° |
| 2026-04-26 10:27 | 65.10790 | 177.31085 | 8642 ft | 203 kts | 337° |
| 2026-04-26 10:28 | 65.12071 | 177.29748 | 8825 ft | 205 kts | 338° |
| 2026-04-26 10:28 | 65.13380 | 177.28377 | 9032 ft | 206 kts | 337° |
| 2026-04-26 10:28 | 65.14692 | 177.26971 | 9241 ft | 208 kts | 337° |
| 2026-04-26 10:28 | 65.16016 | 177.25519 | 9455 ft | 208 kts | 336° |
| 2026-04-26 10:29 | 65.17322 | 177.24054 | 9674 ft | 209 kts | 336° |
| 2026-04-26 10:29 | 65.18618 | 177.22566 | 9928 ft | 208 kts | 335° |
| 2026-04-26 10:29 | 65.19926 | 177.21031 | 10171 ft | 207 kts | 335° |
| 2026-04-26 10:29 | 65.21202 | 177.19504 | 10405 ft | 207 kts | 335° |
| 2026-04-26 10:30 | 65.22482 | 177.17940 | 10636 ft | 207 kts | 334° |
| 2026-04-26 10:30 | 65.23756 | 177.16353 | 10867 ft | 207 kts | 335° |
| 2026-04-26 10:30 | 65.25060 | 177.14903 | 11113 ft | 206 kts | 338° |
| 2026-04-26 10:30 | 65.26362 | 177.13492 | 11365 ft | 205 kts | 337° |
| 2026-04-26 10:31 | 65.27647 | 177.12068 | 11606 ft | 204 kts | 337° |
| 2026-04-26 10:31 | 65.28921 | 177.10629 | 11867 ft | 202 kts | 336° |
| 2026-04-26 10:31 | 65.30173 | 177.09180 | 12155 ft | 199 kts | 336° |
| 2026-04-26 10:31 | 65.31411 | 177.07718 | 12416 ft | 198 kts | 335° |
| 2026-04-26 10:32 | 65.32634 | 177.06244 | 12658 ft | 197 kts | 335° |
| 2026-04-26 10:32 | 65.33843 | 177.04759 | 12886 ft | 196 kts | 335° |
| 2026-04-26 10:32 | 65.35062 | 177.03236 | 13107 ft | 196 kts | 334° |
| 2026-04-26 10:32 | 65.36250 | 177.01724 | 13304 ft | 197 kts | 334° |
| 2026-04-26 10:33 | 65.37464 | 177.00156 | 13477 ft | 198 kts | 333° |
| 2026-04-26 10:33 | 65.38683 | 176.98555 | 13657 ft | 199 kts | 333° |
| 2026-04-26 10:33 | 65.39886 | 176.96951 | 13837 ft | 200 kts | 333° |
| 2026-04-26 10:33 | 65.41101 | 176.95305 | 14018 ft | 201 kts | 332° |
| 2026-04-26 10:34 | 65.42306 | 176.93649 | 14195 ft | 201 kts | 332° |
| 2026-04-26 10:34 | 65.43518 | 176.91957 | 14373 ft | 201 kts | 332° |
| 2026-04-26 10:34 | 65.44723 | 176.90251 | 14547 ft | 201 kts | 331° |
| 2026-04-26 10:34 | 65.45945 | 176.88576 | 14727 ft | 200 kts | 336° |
| 2026-04-26 10:35 | 65.47206 | 176.87177 | 14903 ft | 200 kts | 338° |
| 2026-04-26 10:35 | 65.48469 | 176.85797 | 15060 ft | 200 kts | 338° |
| 2026-04-26 10:35 | 65.49738 | 176.84392 | 15218 ft | 201 kts | 338° |
| 2026-04-26 10:35 | 65.51001 | 176.82985 | 15373 ft | 201 kts | 338° |
| 2026-04-26 10:36 | 65.52258 | 176.81583 | 15526 ft | 201 kts | 338° |
| 2026-04-26 10:36 | 65.53531 | 176.80160 | 15679 ft | 201 kts | 338° |
| 2026-04-26 10:36 | 65.54801 | 176.78738 | 15830 ft | 202 kts | 338° |
| 2026-04-26 10:36 | 65.56066 | 176.77321 | 15977 ft | 202 kts | 338° |
| 2026-04-26 10:37 | 65.57352 | 176.75874 | 16125 ft | 202 kts | 338° |
| 2026-04-26 10:37 | 65.58616 | 176.74452 | 16255 ft | 203 kts | 338° |
| 2026-04-26 10:37 | 65.59892 | 176.73013 | 16373 ft | 204 kts | 338° |
| 2026-04-26 10:37 | 65.61180 | 176.71558 | 16499 ft | 205 kts | 338° |
| 2026-04-26 10:38 | 65.62476 | 176.70091 | 16629 ft | 206 kts | 338° |
| 2026-04-26 10:38 | 65.63776 | 176.68619 | 16758 ft | 206 kts | 338° |
| 2026-04-26 10:38 | 65.65075 | 176.67146 | 16886 ft | 206 kts | 338° |
| 2026-04-26 10:38 | 65.66367 | 176.65677 | 17013 ft | 207 kts | 338° |
| 2026-04-26 10:39 | 65.67677 | 176.64185 | 17141 ft | 207 kts | 338° |
| 2026-04-26 10:39 | 65.68968 | 176.62711 | 17266 ft | 207 kts | 338° |
| 2026-04-26 10:39 | 65.70280 | 176.61214 | 17384 ft | 208 kts | 338° |
| 2026-04-26 10:39 | 65.71584 | 176.59723 | 17477 ft | 210 kts | 338° |
| 2026-04-26 10:40 | 65.72921 | 176.58192 | 17583 ft | 212 kts | 338° |
| 2026-04-26 10:40 | 65.74243 | 176.56679 | 17693 ft | 213 kts | 338° |
| 2026-04-26 10:40 | 65.75590 | 176.55136 | 17771 ft | 216 kts | 338° |
| 2026-04-26 10:40 | 65.76970 | 176.53555 | 17829 ft | 219 kts | 338° |
| 2026-04-26 10:41 | 65.78342 | 176.51985 | 17901 ft | 222 kts | 338° |
| 2026-04-26 10:41 | 65.79750 | 176.50375 | 17968 ft | 225 kts | 338° |
| 2026-04-26 10:41 | 65.81173 | 176.48749 | 17927 ft | 229 kts | 338° |
| 2026-04-26 10:41 | 65.82608 | 176.47095 | 17923 ft | 230 kts | 336° |
| 2026-04-26 10:42 | 65.84050 | 176.45325 | 17911 ft | 232 kts | 336° |
| 2026-04-26 10:42 | 65.85482 | 176.43576 | 17912 ft | 232 kts | 336° |
| 2026-04-26 10:42 | 65.86942 | 176.41800 | 17914 ft | 233 kts | 336° |
| 2026-04-26 10:42 | 65.88390 | 176.40041 | 17908 ft | 234 kts | 336° |
| 2026-04-26 10:43 | 65.89834 | 176.38283 | 17913 ft | 234 kts | 336° |
| 2026-04-26 10:43 | 65.91293 | 176.36458 | 17914 ft | 235 kts | 336° |
| 2026-04-26 10:43 | 65.92740 | 176.34644 | 17908 ft | 236 kts | 335° |
| 2026-04-26 10:43 | 65.94204 | 176.32817 | 17911 ft | 236 kts | 335° |
| 2026-04-26 10:44 | 65.95658 | 176.30994 | 17907 ft | 237 kts | 335° |
| 2026-04-26 10:44 | 65.97127 | 176.29144 | 17913 ft | 237 kts | 335° |
| 2026-04-26 10:44 | 65.98591 | 176.27289 | 17913 ft | 237 kts | 335° |
| 2026-04-26 10:44 | 66.00051 | 176.25430 | 17908 ft | 238 kts | 335° |
| 2026-04-26 10:45 | 66.01514 | 176.23557 | 17911 ft | 238 kts | 335° |
| 2026-04-26 10:45 | 66.02981 | 176.21670 | 17912 ft | 238 kts | 335° |
| 2026-04-26 10:45 | 66.04442 | 176.19781 | 17910 ft | 238 kts | 335° |
| 2026-04-26 10:45 | 66.05907 | 176.17879 | 17908 ft | 239 kts | 335° |
| 2026-04-26 10:46 | 66.07365 | 176.15974 | 17915 ft | 239 kts | 334° |
| 2026-04-26 10:46 | 66.08836 | 176.14046 | 17910 ft | 239 kts | 334° |
| 2026-04-26 10:46 | 66.10312 | 176.12100 | 17905 ft | 240 kts | 334° |
| 2026-04-26 10:46 | 66.11788 | 176.10165 | 17867 ft | 241 kts | 335° |
| 2026-04-26 10:47 | 66.13251 | 176.08279 | 17914 ft | 239 kts | 335° |
| 2026-04-26 10:47 | 66.14734 | 176.06398 | 17911 ft | 240 kts | 335° |
| 2026-04-26 10:47 | 66.16228 | 176.04532 | 17913 ft | 240 kts | 336° |
| 2026-04-26 10:47 | 66.17709 | 176.02696 | 17910 ft | 240 kts | 336° |
| 2026-04-26 10:48 | 66.19192 | 176.00856 | 17908 ft | 240 kts | 335° |
| 2026-04-26 10:48 | 66.20702 | 175.98979 | 17915 ft | 240 kts | 335° |
| 2026-04-26 10:48 | 66.22172 | 175.97148 | 17910 ft | 240 kts | 335° |
| 2026-04-26 10:48 | 66.23662 | 175.95290 | 17907 ft | 241 kts | 335° |
| 2026-04-26 10:49 | 66.25173 | 175.93405 | 17913 ft | 241 kts | 335° |
| 2026-04-26 10:49 | 66.26653 | 175.91556 | 17910 ft | 241 kts | 335° |
| 2026-04-26 10:49 | 66.28149 | 175.89685 | 17909 ft | 241 kts | 335° |
| 2026-04-26 10:49 | 66.29649 | 175.87808 | 17912 ft | 241 kts | 335° |
| 2026-04-26 10:50 | 66.31147 | 175.85931 | 17910 ft | 241 kts | 336° |
| 2026-04-26 10:50 | 66.32154 | 175.84668 | 17911 ft | 241 kts | 336° |
| 2026-04-26 10:50 | 66.34132 | 175.82185 | 17914 ft | 241 kts | 336° |
| 2026-04-26 10:50 | 66.35628 | 175.80307 | 17910 ft | 242 kts | 336° |
| 2026-04-26 10:51 | 66.37137 | 175.78409 | 17911 ft | 242 kts | 336° |
| 2026-04-26 10:51 | 66.40139 | 175.74628 | 17907 ft | 242 kts | 336° |
| 2026-04-26 10:51 | 66.41633 | 175.72743 | 17910 ft | 242 kts | 336° |
| 2026-04-26 10:52 | 66.43127 | 175.70857 | 17912 ft | 242 kts | 336° |
| 2026-04-26 10:52 | 66.44624 | 175.68964 | 17907 ft | 242 kts | 336° |
| 2026-04-26 10:52 | 66.46145 | 175.67040 | 17912 ft | 242 kts | 336° |
| 2026-04-26 10:52 | 66.47629 | 175.65160 | 17914 ft | 242 kts | 336° |
| 2026-04-26 10:53 | 66.49132 | 175.63254 | 17910 ft | 242 kts | 336° |
| 2026-04-26 10:53 | 66.50626 | 175.61357 | 17910 ft | 242 kts | 335° |
| 2026-04-26 10:53 | 66.52136 | 175.59357 | 17909 ft | 243 kts | 335° |
| 2026-04-26 10:54 | 66.55118 | 175.55453 | 17907 ft | 243 kts | 335° |
| 2026-04-26 10:54 | 66.56602 | 175.53534 | 17913 ft | 243 kts | 335° |
| 2026-04-26 10:54 | 66.58110 | 175.51587 | 17913 ft | 243 kts | 335° |
| 2026-04-26 10:54 | 66.59613 | 175.49640 | 17907 ft | 243 kts | 335° |
| 2026-04-26 10:55 | 66.61110 | 175.47697 | 17914 ft | 243 kts | 335° |
| 2026-04-26 10:55 | 66.62607 | 175.45754 | 17912 ft | 243 kts | 335° |
| 2026-04-26 10:55 | 66.64099 | 175.43806 | 17908 ft | 243 kts | 334° |
| 2026-04-26 10:55 | 66.65572 | 175.41676 | 17917 ft | 243 kts | 333° |
| 2026-04-26 10:56 | 66.67024 | 175.39546 | 17908 ft | 243 kts | 333° |
| 2026-04-26 10:56 | 66.68494 | 175.37415 | 17909 ft | 243 kts | 333° |
| 2026-04-26 10:56 | 66.69956 | 175.35300 | 17915 ft | 243 kts | 333° |
| 2026-04-26 10:56 | 66.71419 | 175.33177 | 17898 ft | 244 kts | 332° |
| 2026-04-26 10:57 | 66.72903 | 175.30998 | 17909 ft | 243 kts | 332° |
| 2026-04-26 10:57 | 66.74358 | 175.28850 | 17912 ft | 243 kts | 332° |
| 2026-04-26 10:57 | 66.75815 | 175.26700 | 17909 ft | 244 kts | 332° |
| 2026-04-26 10:57 | 66.77281 | 175.24535 | 17913 ft | 243 kts | 332° |
| 2026-04-26 10:58 | 66.78736 | 175.22385 | 17910 ft | 243 kts | 332° |
| 2026-04-26 10:58 | 66.80203 | 175.20218 | 17907 ft | 244 kts | 332° |
| 2026-04-26 10:58 | 66.81651 | 175.18072 | 17915 ft | 243 kts | 332° |
| 2026-04-26 10:58 | 66.83135 | 175.16023 | 17916 ft | 243 kts | 335° |
| 2026-04-26 10:59 | 66.84646 | 175.14076 | 17898 ft | 243 kts | 335° |
| 2026-04-26 10:59 | 66.86152 | 175.12089 | 17909 ft | 243 kts | 335° |
| 2026-04-26 10:59 | 66.87651 | 175.10088 | 17911 ft | 243 kts | 335° |
| 2026-04-26 10:59 | 66.89127 | 175.08107 | 17908 ft | 243 kts | 335° |
| 2026-04-26 11:00 | 66.90620 | 175.06097 | 17913 ft | 243 kts | 335° |
| 2026-04-26 11:00 | 66.92123 | 175.04065 | 17912 ft | 243 kts | 335° |
| 2026-04-26 11:00 | 66.93601 | 175.02057 | 17907 ft | 243 kts | 335° |
| 2026-04-26 11:00 | 66.95092 | 175.00021 | 17913 ft | 242 kts | 335° |
| 2026-04-26 11:01 | 66.96564 | 174.97998 | 17912 ft | 242 kts | 335° |
| 2026-04-26 11:01 | 66.98058 | 174.95938 | 17907 ft | 242 kts | 335° |
| 2026-04-26 11:01 | 66.99527 | 174.93903 | 17910 ft | 242 kts | 335° |
| 2026-04-26 11:01 | 67.01011 | 174.91840 | 17913 ft | 242 kts | 335° |
| 2026-04-26 11:02 | 67.02496 | 174.89771 | 17907 ft | 242 kts | 335° |
| 2026-04-26 11:02 | 67.03969 | 174.87715 | 17912 ft | 241 kts | 335° |
| 2026-04-26 11:02 | 67.05426 | 174.85681 | 17914 ft | 241 kts | 335° |
| 2026-04-26 11:02 | 67.06905 | 174.83609 | 17907 ft | 241 kts | 335° |
| 2026-04-26 11:03 | 67.08381 | 174.81541 | 17911 ft | 241 kts | 335° |
| 2026-04-26 11:03 | 67.09837 | 174.79497 | 17910 ft | 241 kts | 335° |
| 2026-04-26 11:03 | 67.11326 | 174.77416 | 17861 ft | 243 kts | 335° |
| 2026-04-26 11:03 | 67.12804 | 174.75374 | 17903 ft | 241 kts | 335° |
| 2026-04-26 11:04 | 67.14274 | 174.73347 | 17917 ft | 241 kts | 335° |
| 2026-04-26 11:04 | 67.15749 | 174.71310 | 17912 ft | 241 kts | 335° |
| 2026-04-26 11:04 | 67.17222 | 174.69273 | 17907 ft | 241 kts | 335° |
| 2026-04-26 11:04 | 67.18688 | 174.67242 | 17913 ft | 241 kts | 335° |
| 2026-04-26 11:05 | 67.20180 | 174.65173 | 17913 ft | 241 kts | 335° |
| 2026-04-26 11:05 | 67.21639 | 174.63147 | 17909 ft | 242 kts | 335° |
| 2026-04-26 11:05 | 67.23116 | 174.61095 | 17913 ft | 242 kts | 335° |
| 2026-04-26 11:05 | 67.24596 | 174.59036 | 17909 ft | 242 kts | 335° |
| 2026-04-26 11:06 | 67.26071 | 174.56982 | 17907 ft | 242 kts | 335° |
| 2026-04-26 11:06 | 67.27550 | 174.54923 | 17914 ft | 242 kts | 335° |
| 2026-04-26 11:06 | 67.29048 | 174.52834 | 17910 ft | 242 kts | 335° |
| 2026-04-26 11:06 | 67.30513 | 174.50786 | 17908 ft | 242 kts | 335° |
| 2026-04-26 11:07 | 67.32003 | 174.48703 | 17913 ft | 242 kts | 335° |
| 2026-04-26 11:07 | 67.33481 | 174.46635 | 17910 ft | 242 kts | 335° |
| 2026-04-26 11:07 | 67.34963 | 174.44559 | 17909 ft | 242 kts | 335° |
| 2026-04-26 11:07 | 67.36438 | 174.42490 | 17915 ft | 242 kts | 335° |
| 2026-04-26 11:08 | 67.37911 | 174.40420 | 17910 ft | 242 kts | 335° |
| 2026-04-26 11:08 | 67.39379 | 174.38358 | 17906 ft | 242 kts | 335° |
| 2026-04-26 11:08 | 67.40873 | 174.36255 | 17913 ft | 242 kts | 335° |
| 2026-04-26 11:08 | 67.42355 | 174.34168 | 17907 ft | 242 kts | 334° |
| 2026-04-26 11:09 | 67.43831 | 174.32068 | 17909 ft | 242 kts | 334° |
| 2026-04-26 11:09 | 67.45292 | 174.29973 | 17912 ft | 242 kts | 334° |
| 2026-04-26 11:09 | 67.46780 | 174.27837 | 17907 ft | 242 kts | 335° |
| 2026-04-26 11:09 | 67.48242 | 174.25737 | 17911 ft | 242 kts | 335° |
| 2026-04-26 11:10 | 67.49732 | 174.23598 | 17913 ft | 242 kts | 335° |
| 2026-04-26 11:10 | 67.51186 | 174.21510 | 17908 ft | 242 kts | 335° |
| 2026-04-26 11:10 | 67.52673 | 174.19369 | 17913 ft | 242 kts | 335° |
| 2026-04-26 11:10 | 67.54138 | 174.17259 | 17911 ft | 242 kts | 335° |
| 2026-04-26 11:11 | 67.55608 | 174.15140 | 17906 ft | 242 kts | 335° |
| 2026-04-26 11:11 | 67.57083 | 174.13010 | 17913 ft | 242 kts | 335° |
| 2026-04-26 11:11 | 67.58564 | 174.10867 | 17913 ft | 242 kts | 335° |
| 2026-04-26 11:11 | 67.60017 | 174.08763 | 17910 ft | 242 kts | 335° |
| 2026-04-26 11:12 | 67.61504 | 174.06610 | 17912 ft | 242 kts | 335° |
| 2026-04-26 11:12 | 67.62968 | 174.04489 | 17909 ft | 242 kts | 335° |
| 2026-04-26 11:12 | 67.64445 | 174.02344 | 17906 ft | 242 kts | 335° |
| 2026-04-26 11:12 | 67.65905 | 174.00221 | 17913 ft | 242 kts | 335° |
| 2026-04-26 11:13 | 67.67376 | 173.98080 | 17909 ft | 242 kts | 335° |
| 2026-04-26 11:13 | 67.68845 | 173.95941 | 17910 ft | 242 kts | 335° |
| 2026-04-26 11:13 | 67.70316 | 173.93796 | 17915 ft | 242 kts | 335° |